Time;durP1;ratioP1;P1;durP2;ratioP2;P2;SDS_P1;SDS_P2;PMS_P1;PMS_P2;Temp;Humidity;BMP_temperature;BMP_pressure;BME280_temperature;BME280_humidity;BME280_pressure;Samples;Min_cycle;Max_cycle;Signal;HPM_P1;HPM_P2
2021/08/23 00:00:34;;;;;;;13.10;11.80;;;;;;;18.69;84.20;98856.27;111537;1199;64453;-88
2021/08/23 00:03:01;;;;;;;14.40;12.40;;;;;;;18.68;84.42;98856.69;111551;1199;60999;-88
2021/08/23 00:05:28;;;;;;;13.60;12.20;;;;;;;18.68;84.75;98855.09;111362;1199;63785;-86
2021/08/23 00:07:55;;;;;;;13.10;11.80;;;;;;;18.65;84.76;98854.67;111532;1193;61060;-86
2021/08/23 00:10:22;;;;;;;12.70;11.50;;;;;;;18.59;85.05;98859.39;111544;1196;60986;-87
2021/08/23 00:12:48;;;;;;;12.20;10.90;;;;;;;18.54;85.27;98856.00;111535;1199;64815;-87
2021/08/23 00:15:15;;;;;;;14.20;12.70;;;;;;;18.52;85.56;98851.90;111447;1199;61048;-92
2021/08/23 00:17:43;;;;;;;13.80;12.30;;;;;;;18.57;85.87;98852.39;111357;1196;62638;-90
2021/08/23 00:20:13;;;;;;;12.00;10.80;;;;;;;18.61;86.03;98852.68;111622;1199;61052;-93
2021/08/23 00:22:51;;;;;;;12.60;11.30;;;;;;;18.60;86.15;98852.23;111517;1195;60972;-91
2021/08/23 00:25:19;;;;;;;13.00;11.80;;;;;;;18.60;86.23;98850.08;111289;1193;65990;-91
2021/08/23 00:27:45;;;;;;;12.60;10.90;;;;;;;18.59;86.17;98849.50;111547;1199;61050;-87
2021/08/23 00:30:15;;;;;;;14.00;11.10;;;;;;;18.60;86.37;98852.03;111548;1199;62581;-88
2021/08/23 00:32:43;;;;;;;13.20;11.90;;;;;;;18.60;86.36;98855.27;111428;1199;60958;-89
2021/08/23 00:35:10;;;;;;;13.30;11.70;;;;;;;18.59;86.35;98850.02;111609;1193;61015;-91
2021/08/23 00:37:38;;;;;;;14.20;12.70;;;;;;;18.61;86.56;98846.91;111417;1196;66024;-88
2021/08/23 00:40:07;;;;;;;14.60;13.20;;;;;;;18.69;86.62;98845.63;111369;1193;61014;-87
2021/08/23 00:42:34;;;;;;;16.10;14.50;;;;;;;18.76;86.72;98851.37;111572;1199;63822;-82
2021/08/23 00:45:00;;;;;;;14.00;12.70;;;;;;;18.82;86.55;98854.36;111556;1199;61066;-83
2021/08/23 00:47:27;;;;;;;14.80;12.60;;;;;;;18.87;86.37;98858.90;111547;1195;61036;-83
2021/08/23 00:50:15;;;;;;;14.00;12.00;;;;;;;18.89;86.36;98860.66;111487;1199;65091;-86
2021/08/23 00:52:42;;;;;;;12.80;11.50;;;;;;;18.89;86.39;98863.17;111576;1199;60983;-90
2021/08/23 00:55:09;;;;;;;13.30;11.90;;;;;;;18.82;86.38;98864.58;111387;1199;63959;-90
2021/08/23 00:57:39;;;;;;;13.10;11.80;;;;;;;18.78;86.56;98866.42;111492;1193;61043;-91
2021/08/23 01:00:07;;;;;;;12.80;11.40;;;;;;;18.75;86.57;98868.37;111328;1195;60973;-90
2021/08/23 01:02:47;;;;;;;13.80;12.20;;;;;;;18.73;86.74;98866.13;111406;1193;65958;-89
2021/08/23 01:05:20;;;;;;;14.30;11.90;;;;;;;18.73;86.72;98863.23;111432;1199;60955;-91
2021/08/23 01:08:01;;;;;;;16.00;12.60;;;;;;;18.74;86.78;98863.64;111510;1199;63672;-88
2021/08/23 01:10:34;;;;;;;12.90;11.50;;;;;;;18.72;87.02;98866.86;111558;1195;61069;-89
2021/08/23 01:13:00;;;;;;;13.70;12.30;;;;;;;18.70;87.19;98865.81;111440;1194;61182;-93
2021/08/23 01:15:27;;;;;;;14.80;13.20;;;;;;;18.66;87.08;98865.00;111494;1199;66001;-89
2021/08/23 01:17:55;;;;;;;14.20;12.70;;;;;;;18.62;87.17;98862.34;111543;1199;61076;-85
2021/08/23 01:20:23;;;;;;;13.90;12.60;;;;;;;18.61;87.28;98859.94;111491;1199;63649;-89
2021/08/23 01:22:52;;;;;;;14.40;12.70;;;;;;;18.63;87.53;98856.42;111424;1195;61092;-90
2021/08/23 01:25:24;;;;;;;17.60;15.80;;;;;;;18.67;87.50;98850.88;111557;1199;61060;-87
2021/08/23 01:28:12;;;;;;;15.90;14.30;;;;;;;18.69;87.67;98843.69;111563;1199;65992;-87
2021/08/23 01:30:58;;;;;;;16.10;14.20;;;;;;;18.71;87.75;98843.91;111534;1199;61289;-88
2021/08/23 01:33:25;;;;;;;18.50;16.70;;;;;;;18.74;87.80;98842.07;111580;1199;63754;-87
2021/08/23 01:35:52;;;;;;;16.90;15.20;;;;;;;18.75;87.89;98843.89;111555;1193;61059;-87
2021/08/23 01:38:19;;;;;;;16.10;14.50;;;;;;;18.76;87.83;98850.11;111504;1199;61025;-85
2021/08/23 01:40:45;;;;;;;14.80;13.30;;;;;;;18.74;87.85;98839.52;111513;1199;74721;-85
2021/08/23 01:43:12;;;;;;;14.60;13.20;;;;;;;18.77;88.13;98838.86;111600;1199;61073;-87
2021/08/23 01:45:39;;;;;;;15.40;13.30;;;;;;;18.82;88.14;98842.27;111776;1199;63989;-83
2021/08/23 01:48:06;;;;;;;15.00;13.40;;;;;;;18.82;88.24;98840.48;111670;1199;61064;-82
2021/08/23 01:50:32;;;;;;;14.40;12.90;;;;;;;18.81;88.22;98835.58;111604;1199;60995;-85
2021/08/23 01:52:59;;;;;;;15.80;13.40;;;;;;;18.84;88.46;98824.23;111730;1199;65647;-85
2021/08/23 01:55:26;;;;;;;14.50;12.80;;;;;;;18.92;88.57;98816.98;111711;1199;61099;-87
2021/08/23 01:57:52;;;;;;;13.90;12.50;;;;;;;18.98;88.60;98813.45;111506;1199;64744;-85
2021/08/23 02:00:44;;;;;;;15.60;14.10;;;;;;;18.99;88.41;98809.34;111503;1196;60976;-84
2021/08/23 02:03:11;;;;;;;14.90;13.50;;;;;;;18.97;88.46;98802.23;111551;1199;61118;-84
2021/08/23 02:05:38;;;;;;;15.70;12.50;;;;;;;18.94;88.58;98797.55;111529;1192;66657;-84
2021/08/23 02:08:05;;;;;;;14.10;12.70;;;;;;;18.88;88.47;98790.35;111541;1199;61086;-84
2021/08/23 02:10:32;;;;;;;14.80;13.40;;;;;;;18.83;88.63;98784.05;111515;1199;71859;-84
2021/08/23 02:12:59;;;;;;;13.90;12.50;;;;;;;18.79;88.63;98785.91;111411;1193;61880;-84
2021/08/23 02:15:25;;;;;;;14.60;13.00;;;;;;;18.76;88.73;98786.20;111563;1196;61050;-83
2021/08/23 02:17:52;;;;;;;15.70;14.10;;;;;;;18.74;88.77;98785.75;111520;1199;66629;-84
2021/08/23 02:20:19;;;;;;;15.20;13.60;;;;;;;18.71;89.07;98787.11;111529;1199;61025;-84
2021/08/23 02:22:48;;;;;;;16.00;14.50;;;;;;;18.68;89.03;98789.40;111554;1199;64997;-82
2021/08/23 02:25:21;;;;;;;15.30;13.70;;;;;;;18.65;89.08;98789.48;111535;1199;60986;-83
2021/08/23 02:27:50;;;;;;;15.10;13.70;;;;;;;18.63;89.21;98785.96;111306;1199;61053;-83
2021/08/23 02:30:17;;;;;;;17.90;13.80;;;;;;;18.61;89.30;98785.40;111670;1192;64372;-86
2021/08/23 02:32:44;;;;;;;15.30;13.90;;;;;;;18.60;89.49;98781.35;111542;1199;60964;-84
2021/08/23 02:35:11;;;;;;;14.80;13.40;;;;;;;18.61;89.59;98774.44;111532;1199;62623;-87
2021/08/23 02:37:38;;;;;;;14.80;13.40;;;;;;;18.61;89.67;98777.98;111482;1199;61092;-85
2021/08/23 02:40:05;;;;;;;13.60;12.30;;;;;;;18.60;89.65;98775.81;111520;1192;61293;-84
2021/08/23 02:42:32;;;;;;;14.00;12.60;;;;;;;18.57;89.72;98778.98;111500;1199;65993;-83
2021/08/23 02:44:58;;;;;;;14.80;13.30;;;;;;;18.54;89.82;98773.38;111396;1192;61079;-84
2021/08/23 02:47:25;;;;;;;14.20;12.80;;;;;;;18.51;89.90;98776.20;111532;1199;64102;-83
2021/08/23 02:50:12;;;;;;;15.20;13.70;;;;;;;18.51;90.02;98778.55;111554;1194;61095;-93
2021/08/23 02:52:38;;;;;;;14.60;13.20;;;;;;;18.54;90.25;98779.09;111543;1199;61104;-84
2021/08/23 02:55:06;;;;;;;13.30;12.10;;;;;;;18.55;90.23;98780.17;111590;1199;65771;-85
2021/08/23 02:57:33;;;;;;;14.30;12.80;;;;;;;18.54;90.30;98779.66;111595;1199;61034;-85
2021/08/23 03:00:01;;;;;;;14.40;12.90;;;;;;;18.54;90.47;98783.95;111450;1199;65076;-85
2021/08/23 03:02:27;;;;;;;15.30;13.80;;;;;;;18.53;90.45;98785.19;111378;1193;61078;-85
2021/08/23 03:04:54;;;;;;;15.90;13.50;;;;;;;18.52;90.34;98790.00;111500;1193;61072;-85
2021/08/23 03:07:20;;;;;;;14.00;12.60;;;;;;;18.49;90.48;98797.16;111539;1200;65914;-85
2021/08/23 03:09:47;;;;;;;15.10;13.40;;;;;;;18.45;90.66;98794.44;111455;1201;61183;-86
2021/08/23 03:12:15;;;;;;;13.80;12.50;;;;;;;18.43;90.71;98794.98;111483;1199;64779;-85
2021/08/23 03:14:42;;;;;;;15.20;13.10;;;;;;;18.41;90.76;98794.83;111551;1200;61076;-86
2021/08/23 03:17:09;;;;;;;15.00;13.60;;;;;;;18.42;90.81;98795.97;111499;1199;61034;-85
2021/08/23 03:19:36;;;;;;;15.20;13.70;;;;;;;18.44;90.92;98792.56;111402;1200;64611;-85
2021/08/23 03:22:03;;;;;;;14.80;13.30;;;;;;;18.44;91.03;98793.09;111531;1199;61018;-85
2021/08/23 03:24:30;;;;;;;14.10;12.90;;;;;;;18.44;91.04;98792.59;111512;1199;63631;-85
2021/08/23 03:26:56;;;;;;;14.70;13.30;;;;;;;18.43;90.91;98795.55;111548;1195;60958;-84
2021/08/23 03:29:23;;;;;;;13.40;12.30;;;;;;;18.39;90.94;98798.67;111579;1199;61095;-85
2021/08/23 03:31:50;;;;;;;16.00;14.40;;;;;;;18.34;91.10;98799.15;111538;1199;65654;-85
2021/08/23 03:34:17;;;;;;;15.30;13.90;;;;;;;18.32;91.16;98802.14;111454;1201;61040;-85
2021/08/23 03:36:45;;;;;;;14.20;12.90;;;;;;;18.31;91.41;98806.84;111502;1199;62595;-85
2021/08/23 03:39:14;;;;;;;14.60;13.20;;;;;;;18.29;91.59;98807.40;111588;1199;60982;-85
2021/08/23 03:41:40;;;;;;;14.60;13.40;;;;;;;18.32;91.73;98805.86;111436;1195;60995;-85
2021/08/23 03:44:07;;;;;;;14.90;13.60;;;;;;;18.37;91.87;98807.34;111547;1199;66189;-84
2021/08/23 03:46:34;;;;;;;15.50;13.90;;;;;;;18.37;91.84;98811.82;111441;1200;61069;-85
2021/08/23 03:49:02;;;;;;;14.50;13.10;;;;;;;18.35;91.89;98814.39;111593;1192;62650;-84
2021/08/23 03:51:29;;;;;;;14.80;13.50;;;;;;;18.31;91.86;98818.02;111503;1192;60989;-84
2021/08/23 03:53:56;;;;;;;15.20;13.70;;;;;;;18.31;92.17;98817.33;111444;1200;61065;-85
2021/08/23 03:56:23;;;;;;;15.00;13.60;;;;;;;18.29;92.14;98816.81;111544;1199;64646;-87
2021/08/23 03:58:50;;;;;;;14.90;13.50;;;;;;;18.30;92.30;98822.45;111550;1192;61723;-87
2021/08/23 04:01:17;;;;;;;13.70;12.40;;;;;;;18.34;92.44;98828.52;111508;1200;63673;-86
2021/08/23 04:03:44;;;;;;;15.30;13.80;;;;;;;18.35;92.43;98833.77;111539;1200;60963;-87
2021/08/23 04:06:12;;;;;;;14.80;13.50;;;;;;;18.35;92.48;98837.56;111463;1200;61101;-88
2021/08/23 04:08:39;;;;;;;14.20;12.90;;;;;;;18.36;92.49;98834.81;111639;1200;65971;-87
2021/08/23 04:11:10;;;;;;;16.00;14.50;;;;;;;18.37;92.66;98836.14;111564;1202;60990;-89
2021/08/23 04:13:36;;;;;;;16.10;14.50;;;;;;;18.40;92.80;98832.41;111455;1202;64092;-89
2021/08/23 04:16:03;;;;;;;17.20;15.50;;;;;;;18.46;92.96;98837.31;111508;1200;61059;-88
2021/08/23 04:18:30;;;;;;;16.40;15.00;;;;;;;18.49;92.89;98837.44;111501;1197;61043;-88
2021/08/23 04:20:57;;;;;;;16.20;14.50;;;;;;;18.55;92.93;98835.02;111497;1201;65928;-86
2021/08/23 04:23:23;;;;;;;15.50;13.90;;;;;;;18.58;92.89;98838.23;111589;1200;61273;-86
2021/08/23 04:25:50;;;;;;;16.00;14.10;;;;;;;18.60;92.79;98841.98;111498;1201;63969;-87
2021/08/23 04:28:16;;;;;;;15.20;13.70;;;;;;;18.62;92.95;98844.18;111552;1200;61078;-86
2021/08/23 04:30:44;;;;;;;15.70;14.30;;;;;;;18.62;92.90;98845.95;111466;1195;61069;-86
2021/08/23 04:33:10;;;;;;;15.30;13.70;;;;;;;18.65;92.93;98843.16;111457;1193;66001;-86
2021/08/23 04:35:37;;;;;;;15.50;14.00;;;;;;;18.68;92.85;98848.44;111578;1200;61056;-87
2021/08/23 04:38:03;;;;;;;14.10;12.90;;;;;;;18.67;92.83;98845.81;111507;1201;63686;-87
2021/08/23 04:40:30;;;;;;;15.80;14.20;;;;;;;18.67;92.90;98849.05;111553;1195;61006;-88
2021/08/23 04:42:58;;;;;;;16.10;14.50;;;;;;;18.68;92.90;98846.13;111613;1195;61040;-86
2021/08/23 04:45:25;;;;;;;15.70;14.20;;;;;;;18.68;93.00;98845.38;111540;1201;66562;-88
2021/08/23 04:47:52;;;;;;;16.00;14.30;;;;;;;18.68;93.16;98843.52;111452;1199;61072;-87
2021/08/23 04:50:19;;;;;;;14.80;13.50;;;;;;;18.71;93.30;98849.38;111503;1201;63632;-86
2021/08/23 04:52:45;;;;;;;13.80;12.50;;;;;;;18.75;93.29;98850.82;111669;1201;61085;-87
2021/08/23 04:55:12;;;;;;;14.00;12.30;;;;;;;18.74;93.26;98852.85;111946;1196;61044;-86
2021/08/23 04:57:39;;;;;;;15.10;13.50;;;;;;;18.72;93.40;98852.46;111775;1201;66118;-86
2021/08/23 05:00:10;;;;;;;12.20;11.00;;;;;;;18.72;93.47;98857.55;111724;1200;61091;-88
2021/08/23 05:02:37;;;;;;;12.50;11.30;;;;;;;18.71;93.38;98860.02;112075;1201;63844;-88
2021/08/23 05:05:06;;;;;;;11.90;10.70;;;;;;;18.69;93.52;98862.52;111774;1200;61085;-87
2021/08/23 05:07:32;;;;;;;11.40;10.30;;;;;;;18.72;93.72;98862.17;111681;1197;60987;-86
2021/08/23 05:09:59;;;;;;;12.60;11.30;;;;;;;18.72;93.75;98866.33;111456;1198;65973;-87
2021/08/23 05:12:25;;;;;;;11.40;10.40;;;;;;;18.73;93.78;98871.60;111549;1192;61218;-88
2021/08/23 05:14:52;;;;;;;11.60;10.60;;;;;;;18.74;93.81;98870.14;111523;1202;63986;-86
2021/08/23 05:17:19;;;;;;;11.80;10.60;;;;;;;18.73;93.77;98866.45;111558;1195;61186;-88
2021/08/23 05:19:45;;;;;;;10.50;9.60;;;;;;;18.73;93.98;98867.91;111585;1196;60966;-87
2021/08/23 05:22:12;;;;;;;10.90;9.30;;;;;;;18.71;94.01;98869.15;111538;1203;64679;-87
2021/08/23 05:24:38;;;;;;;9.60;8.60;;;;;;;18.70;94.11;98871.08;111570;1200;61418;-87
2021/08/23 05:27:05;;;;;;;9.00;8.20;;;;;;;18.69;94.26;98872.01;111524;1200;63626;-86
2021/08/23 05:29:32;;;;;;;7.90;7.10;;;;;;;18.68;94.14;98877.06;111595;1195;61072;-88
2021/08/23 05:31:58;;;;;;;8.00;7.30;;;;;;;18.66;94.15;98879.55;111540;1195;61161;-88
2021/08/23 05:34:25;;;;;;;10.40;7.60;;;;;;;18.61;94.14;98882.73;111570;1200;65716;-86
2021/08/23 05:36:51;;;;;;;7.30;6.60;;;;;;;18.58;94.33;98881.58;111544;1201;60957;-89
2021/08/23 05:39:18;;;;;;;7.00;6.30;;;;;;;18.55;94.30;98881.77;111558;1202;63965;-86
2021/08/23 05:41:45;;;;;;;6.80;5.90;;;;;;;18.52;94.23;98884.19;111521;1195;61095;-88
2021/08/23 05:44:11;;;;;;;6.90;6.00;;;;;;;18.50;94.38;98889.97;111580;1195;61073;-87
2021/08/23 05:46:38;;;;;;;6.40;5.60;;;;;;;18.48;94.47;98889.72;111500;1199;65823;-87
2021/08/23 05:49:04;;;;;;;5.90;5.40;;;;;;;18.44;94.31;98893.48;111530;1200;61017;-85
2021/08/23 05:51:31;;;;;;;5.70;4.80;;;;;;;18.40;94.32;98898.55;111545;1192;63702;-85
2021/08/23 05:53:58;;;;;;;5.40;4.90;;;;;;;18.38;94.39;98898.01;111553;1199;61062;-85
2021/08/23 05:56:24;;;;;;;5.70;4.60;;;;;;;18.37;94.36;98896.71;111533;1194;60963;-85
2021/08/23 05:58:51;;;;;;;6.50;5.10;;;;;;;18.36;94.46;98895.73;111477;1194;65653;-85
2021/08/23 06:01:17;;;;;;;5.60;5.10;;;;;;;18.35;94.42;98895.45;111573;1201;61023;-85
2021/08/23 06:03:44;;;;;;;10.60;5.70;;;;;;;18.33;94.47;98897.25;111551;1200;63692;-87
2021/08/23 06:06:13;;;;;;;7.00;5.90;;;;;;;18.33;94.49;98900.01;111497;1196;61678;-86
2021/08/23 06:08:41;;;;;;;7.60;6.00;;;;;;;18.31;94.39;98901.98;111551;1197;61015;-86
2021/08/23 06:11:08;;;;;;;5.30;4.80;;;;;;;18.29;94.39;98902.70;111494;1197;65976;-85
2021/08/23 06:13:34;;;;;;;6.10;5.00;;;;;;;18.30;94.54;98904.45;111535;1201;61060;-86
2021/08/23 06:16:01;;;;;;;5.60;5.00;;;;;;;18.30;94.48;98907.54;111504;1192;64007;-85
2021/08/23 06:18:28;;;;;;;5.00;4.20;;;;;;;18.30;94.52;98908.58;111530;1201;61062;-86
2021/08/23 06:20:54;;;;;;;5.20;4.70;;;;;;;18.29;94.35;98909.71;111587;1196;60976;-86
2021/08/23 06:23:21;;;;;;;5.30;4.70;;;;;;;18.28;94.44;98908.60;111542;1201;65691;-87
2021/08/23 06:25:47;;;;;;;4.80;4.20;;;;;;;18.26;94.44;98912.35;111549;1200;61193;-85
2021/08/23 06:28:14;;;;;;;7.30;5.80;;;;;;;18.27;94.53;98914.48;111492;1192;62610;-84
2021/08/23 06:30:41;;;;;;;5.20;4.70;;;;;;;18.27;94.49;98913.77;111500;1200;61078;-83
2021/08/23 06:33:08;;;;;;;5.40;4.70;;;;;;;18.27;94.42;98915.53;111496;1196;61059;-84
2021/08/23 06:35:34;;;;;;;5.20;4.20;;;;;;;18.29;94.52;98917.33;111540;1200;65982;-84
2021/08/23 06:38:01;;;;;;;4.40;4.00;;;;;;;18.30;94.60;98918.63;111502;1200;61746;-84
2021/08/23 06:40:28;;;;;;;4.90;4.30;;;;;;;18.30;94.48;98918.46;111528;1201;63962;-83
2021/08/23 06:42:54;;;;;;;4.80;4.20;;;;;;;18.31;94.38;98919.11;111557;1194;60960;-83
2021/08/23 06:45:21;;;;;;;7.20;4.00;;;;;;;18.33;94.25;98920.82;111511;1192;61076;-83
2021/08/23 06:47:48;;;;;;;5.00;3.50;;;;;;;18.35;94.04;98923.71;111568;1200;65987;-84
2021/08/23 06:50:14;;;;;;;4.70;4.10;;;;;;;18.37;94.10;98924.38;111545;1201;61250;-83
2021/08/23 06:52:42;;;;;;;4.00;3.60;;;;;;;18.41;94.04;98922.69;111492;1193;64119;-83
2021/08/23 06:55:10;;;;;;;4.20;3.70;;;;;;;18.45;93.98;98923.09;111534;1193;61005;-83
2021/08/23 06:57:37;;;;;;;3.90;3.60;;;;;;;18.46;93.82;98927.63;111554;1197;61058;-83
2021/08/23 07:00:05;;;;;;;3.80;3.40;;;;;;;18.47;93.75;98930.45;111519;1201;65708;-84
2021/08/23 07:02:31;;;;;;;5.20;3.40;;;;;;;18.48;93.71;98929.67;111516;1201;61105;-84
2021/08/23 07:04:59;;;;;;;3.30;3.00;;;;;;;18.49;93.59;98929.54;111506;1200;63686;-84
2021/08/23 07:07:25;;;;;;;3.40;3.20;;;;;;;18.51;93.49;98926.28;111491;1196;61794;-84
2021/08/23 07:09:52;;;;;;;3.50;3.20;;;;;;;18.53;93.34;98928.79;111495;1201;60992;-84
2021/08/23 07:12:19;;;;;;;3.70;2.90;;;;;;;18.52;93.06;98930.34;111519;1201;65956;-83
2021/08/23 07:14:46;;;;;;;3.60;3.20;;;;;;;18.53;93.01;98929.13;111485;1197;61082;-84
2021/08/23 07:17:13;;;;;;;3.40;3.10;;;;;;;18.52;92.89;98930.50;111537;1201;64129;-84
2021/08/23 07:19:39;;;;;;;3.80;3.40;;;;;;;18.54;93.01;98933.09;111510;1200;61008;-84
2021/08/23 07:22:06;;;;;;;5.30;3.60;;;;;;;18.57;92.99;98935.75;111527;1193;60983;-84
2021/08/23 07:24:33;;;;;;;3.70;3.40;;;;;;;18.61;92.81;98934.73;111561;1201;64289;-84
2021/08/23 07:27:04;;;;;;;4.00;3.30;;;;;;;18.61;92.69;98936.24;111546;1202;61085;-84
2021/08/23 07:29:30;;;;;;;3.80;3.40;;;;;;;18.59;92.46;98934.05;111492;1200;63751;-83
2021/08/23 07:31:57;;;;;;;3.70;3.40;;;;;;;18.63;92.53;98934.36;111527;1201;61159;-84
2021/08/23 07:34:24;;;;;;;4.00;3.60;;;;;;;18.69;92.44;98933.59;111553;1192;61071;-83
2021/08/23 07:36:51;;;;;;;4.30;3.70;;;;;;;18.78;92.36;98934.34;111481;1201;66034;-83
2021/08/23 07:39:18;;;;;;;3.50;3.20;;;;;;;18.87;92.25;98930.21;111549;1200;60987;-84
2021/08/23 07:41:45;;;;;;;4.10;3.70;;;;;;;18.94;91.86;98930.89;111547;1202;64084;-84
2021/08/23 07:44:12;;;;;;;3.10;2.90;;;;;;;19.00;91.67;98934.95;111545;1201;61082;-84
2021/08/23 07:46:38;;;;;;;3.70;3.30;;;;;;;19.03;91.41;98936.47;111571;1197;60925;-83
2021/08/23 07:49:05;;;;;;;4.60;3.50;;;;;;;19.04;91.23;98940.17;111574;1202;64628;-83
2021/08/23 07:51:32;;;;;;;5.50;3.80;;;;;;;19.04;91.37;98943.38;111575;1192;61079;-83
2021/08/23 07:53:58;;;;;;;3.60;3.30;;;;;;;19.05;91.41;98942.34;111529;1201;62588;-83
2021/08/23 07:56:26;;;;;;;4.40;3.70;;;;;;;19.04;91.35;98941.55;111583;1201;61140;-83
2021/08/23 07:58:52;;;;;;;3.60;3.30;;;;;;;19.05;91.41;98940.20;111552;1201;61091;-83
2021/08/23 08:01:22;;;;;;;5.20;3.60;;;;;;;19.04;91.27;98938.90;111532;1203;64593;-83
2021/08/23 08:03:49;;;;;;;5.00;3.30;;;;;;;19.05;91.32;98940.69;111557;1200;61198;-80
2021/08/23 08:06:16;;;;;;;3.50;3.10;;;;;;;19.09;91.15;98940.14;111552;1202;64020;-84
2021/08/23 08:08:43;;;;;;;3.80;3.50;;;;;;;19.11;91.23;98941.45;111507;1197;61082;-83
2021/08/23 08:11:10;;;;;;;3.70;3.40;;;;;;;19.15;91.18;98942.14;111560;1197;61059;-85
2021/08/23 08:13:36;;;;;;;3.80;3.50;;;;;;;19.16;90.89;98938.52;111597;1192;65988;-85
2021/08/23 08:16:03;;;;;;;4.10;3.10;;;;;;;19.20;90.88;98939.36;111527;1201;61085;-85
2021/08/23 08:18:30;;;;;;;3.60;3.30;;;;;;;19.25;90.91;98939.73;111582;1200;62739;-83
2021/08/23 08:20:57;;;;;;;3.30;3.10;;;;;;;19.29;90.65;98935.69;111538;1201;61091;-85
2021/08/23 08:23:23;;;;;;;4.10;3.60;;;;;;;19.34;90.67;98932.02;111563;1201;61098;-85
2021/08/23 08:25:50;;;;;;;4.10;3.70;;;;;;;19.43;90.89;98929.91;111545;1200;64664;-83
2021/08/23 08:28:16;;;;;;;3.60;3.30;;;;;;;19.53;90.48;98929.05;111541;1201;61085;-84
2021/08/23 08:30:43;;;;;;;4.10;3.80;;;;;;;19.60;90.29;98925.66;111518;1199;63939;-84
2021/08/23 08:33:10;;;;;;;4.10;3.70;;;;;;;19.68;90.23;98925.12;111554;1197;60995;-82
2021/08/23 08:35:38;;;;;;;4.00;3.60;;;;;;;19.77;89.99;98926.20;111534;1196;61360;-85
2021/08/23 08:38:05;;;;;;;4.10;3.60;;;;;;;19.87;89.88;98927.70;111557;1201;65969;-84
2021/08/23 08:40:31;;;;;;;4.40;4.00;;;;;;;20.01;89.65;98931.27;111553;1200;61050;-84
2021/08/23 08:42:58;;;;;;;5.60;3.70;;;;;;;20.15;89.46;98926.16;111517;1193;62741;-85
2021/08/23 08:45:27;;;;;;;4.10;3.70;;;;;;;20.31;89.27;98930.02;111566;1200;61075;-83
2021/08/23 08:47:56;;;;;;;4.40;4.00;;;;;;;20.46;88.74;98931.66;111564;1202;61021;-83
2021/08/23 08:50:23;;;;;;;4.30;4.00;;;;;;;20.48;88.41;98931.39;111562;1192;66879;-83
2021/08/23 08:52:50;;;;;;;4.70;4.10;;;;;;;20.47;88.34;98931.35;111544;1202;61062;-83
2021/08/23 08:55:17;;;;;;;3.70;3.40;;;;;;;20.48;88.43;98930.84;111536;1202;62572;-85
2021/08/23 08:57:44;;;;;;;4.20;3.60;;;;;;;20.46;88.17;98927.65;111531;1196;61076;-85
2021/08/23 09:00:12;;;;;;;4.60;3.60;;;;;;;20.38;87.90;98933.40;111550;1202;61079;-85
2021/08/23 09:02:38;;;;;;;4.80;4.10;;;;;;;20.30;87.95;98934.92;111536;1200;64618;-83
2021/08/23 09:05:24;;;;;;;4.60;4.00;;;;;;;20.28;87.91;98936.80;111482;1197;61015;-82
2021/08/23 09:07:51;;;;;;;4.90;4.10;;;;;;;20.32;88.08;98938.23;111535;1202;63638;-83
2021/08/23 09:10:25;;;;;;;4.10;3.80;;;;;;;20.42;88.15;98936.87;111489;1201;61079;-83
2021/08/23 09:13:06;;;;;;;4.20;3.80;;;;;;;20.47;87.87;98937.23;111581;1200;61049;-83
2021/08/23 09:15:34;;;;;;;4.40;3.90;;;;;;;20.43;87.77;98932.84;111594;1192;66080;-83
2021/08/23 09:18:06;;;;;;;4.70;4.10;;;;;;;20.34;87.55;98931.75;111591;1200;61065;-83
2021/08/23 09:20:35;;;;;;;4.40;4.00;;;;;;;20.34;87.52;98929.13;111549;1193;62831;-83
2021/08/23 09:23:10;;;;;;;3.80;3.50;;;;;;;20.44;87.39;98931.14;111626;1200;61072;-83
2021/08/23 09:25:38;;;;;;;6.60;4.90;;;;;;;20.65;87.21;98929.90;111493;1193;61099;-83
2021/08/23 09:28:06;;;;;;;4.60;4.20;;;;;;;20.79;87.06;98928.02;111491;1200;65859;-83
2021/08/23 09:30:34;;;;;;;4.30;3.90;;;;;;;20.78;86.68;98926.84;111541;1192;61077;-84
2021/08/23 09:33:03;;;;;;;5.00;4.20;;;;;;;20.77;86.36;98928.62;111534;1202;62319;-84
2021/08/23 09:35:36;;;;;;;4.50;4.10;;;;;;;20.79;86.62;98930.02;111532;1197;61085;-83
2021/08/23 09:38:13;;;;;;;4.00;3.70;;;;;;;20.85;86.33;98932.25;111516;1192;60996;-83
2021/08/23 09:40:40;;;;;;;4.40;4.00;;;;;;;20.87;85.86;98933.70;111506;1200;65663;-84
2021/08/23 09:43:13;;;;;;;3.90;3.60;;;;;;;20.85;85.83;98933.29;111528;1200;60963;-84
2021/08/23 09:45:47;;;;;;;3.80;3.50;;;;;;;20.80;85.93;98930.56;111511;1201;63947;-84
2021/08/23 09:48:14;;;;;;;4.60;3.20;;;;;;;20.78;85.83;98936.95;111569;1192;61126;-83
2021/08/23 09:50:47;;;;;;;3.30;3.10;;;;;;;20.72;85.54;98940.52;111564;1200;60964;-83
2021/08/23 09:53:16;;;;;;;3.80;3.50;;;;;;;20.63;85.43;98943.11;111497;1201;65953;-84
2021/08/23 09:55:45;;;;;;;3.50;3.20;;;;;;;20.66;85.42;98939.02;111530;1201;68849;-84
2021/08/23 09:58:12;;;;;;;3.90;3.20;;;;;;;20.91;85.16;98937.11;111561;1200;62611;-84
2021/08/23 10:00:41;;;;;;;3.70;3.40;;;;;;;21.28;84.58;98938.46;111543;1201;61011;-85
2021/08/23 10:03:22;;;;;;;4.30;4.00;;;;;;;21.56;83.81;98933.16;111604;1192;61044;-86
2021/08/23 10:05:49;;;;;;;3.70;3.00;;;;;;;21.89;83.57;98932.48;111488;1192;65966;-85
2021/08/23 10:08:20;;;;;;;4.70;3.70;;;;;;;22.11;83.00;98930.98;111570;1201;61025;-85
2021/08/23 10:10:48;;;;;;;4.10;3.20;;;;;;;22.29;82.05;98930.34;111515;1201;62568;-85
2021/08/23 10:13:16;;;;;;;3.70;3.40;;;;;;;22.41;81.84;98923.23;111551;1201;61080;-84
2021/08/23 10:15:42;;;;;;;4.10;3.80;;;;;;;22.51;81.15;98920.38;111550;1196;61081;-84
2021/08/23 10:18:09;;;;;;;4.00;3.70;;;;;;;22.56;80.91;98916.34;111562;1201;74711;-84
2021/08/23 10:20:37;;;;;;;3.70;3.40;;;;;;;22.47;80.42;98916.63;111524;1201;61170;-84
2021/08/23 10:23:05;;;;;;;3.70;3.40;;;;;;;22.37;80.47;98916.73;111396;1201;63637;-84
2021/08/23 10:25:33;;;;;;;3.50;3.20;;;;;;;22.31;80.59;98914.95;111582;1200;61162;-84
2021/08/23 10:28:06;;;;;;;4.00;3.60;;;;;;;22.20;80.87;98914.91;111578;1202;61069;-84
2021/08/23 10:30:33;;;;;;;3.70;3.40;;;;;;;22.13;80.28;98915.03;111536;1202;65793;-84
2021/08/23 10:33:14;;;;;;;3.90;3.50;;;;;;;22.00;80.20;98919.24;111528;1200;61066;-84
2021/08/23 10:35:57;;;;;;;4.20;3.10;;;;;;;21.90;80.61;98918.83;111554;1200;63845;-84
2021/08/23 10:38:26;;;;;;;3.50;3.20;;;;;;;21.77;80.68;98917.39;111510;1192;60996;-84
2021/08/23 10:41:15;;;;;;;3.50;3.20;;;;;;;21.73;80.83;98919.17;111575;1193;61043;-84
2021/08/23 10:43:51;;;;;;;3.70;3.30;;;;;;;21.75;81.03;98916.86;111522;1200;65066;-84
2021/08/23 10:46:38;;;;;;;3.30;3.00;;;;;;;21.93;81.34;98915.52;111525;1197;61046;-83
2021/08/23 10:49:15;;;;;;;4.00;3.60;;;;;;;22.12;80.78;98909.00;111582;1200;64185;-83
2021/08/23 10:52:00;;;;;;;4.50;3.30;;;;;;;22.30;80.29;98913.23;111509;1200;60986;-83
2021/08/23 10:54:34;;;;;;;3.90;3.60;;;;;;;22.54;79.84;98912.05;111514;1197;61075;-83
2021/08/23 10:57:00;;;;;;;3.90;3.60;;;;;;;22.77;79.64;98906.76;111538;1200;65978;-84
2021/08/23 10:59:38;;;;;;;4.00;3.20;;;;;;;23.01;79.30;98904.52;111550;1200;61080;-84
2021/08/23 11:02:04;;;;;;;3.60;3.30;;;;;;;23.22;78.54;98906.35;111555;1200;64936;-84
2021/08/23 11:04:55;;;;;;;3.70;3.40;;;;;;;23.44;78.33;98898.70;111513;1201;61126;-84
2021/08/23 11:07:27;;;;;;;3.90;3.60;;;;;;;23.73;77.33;98897.42;111551;1200;61152;-84
2021/08/23 11:10:11;;;;;;;4.90;4.20;;;;;;;23.96;76.52;98897.98;111583;1200;66899;-84
2021/08/23 11:12:55;;;;;;;3.90;3.60;;;;;;;24.11;75.36;98895.21;111571;1200;61044;-84
2021/08/23 11:15:24;;;;;;;3.90;3.60;;;;;;;24.11;74.29;98889.70;111508;1200;64954;-84
2021/08/23 11:18:12;;;;;;;4.00;3.40;;;;;;;24.20;74.17;98886.85;111560;1200;61002;-85
2021/08/23 11:20:48;;;;;;;3.30;3.00;;;;;;;24.37;73.76;98887.78;111566;1192;61126;-85
2021/08/23 11:23:32;;;;;;;3.70;3.50;;;;;;;24.44;73.14;98884.98;111571;1200;64604;-86